Indianapolis, Indiana
Current Conditions -  °F | °C
As of 1:54 AM on Saturday 01 Nov 2014 (Local Time) from KIND Reporting Station
Scattered Clouds Scattered Clouds  
Wind Chill: 20°   Ceiling: Unl
Heat Index: 32°   Visibility: 10mi
Dew Point: 24°   Wind: 21mph
Humidity: 73%   Direction: 350°N
Pressure: 30.18"   Gusts: 29mph
Location:  39.77°N, 86.15°W
Report Text: KIND 010554Z 35018G25KT 10SM SCT048 SCT070 00/M04 A3018 RMK AO2 PK WND 36027/0500 SLP227 60004 T00001044 10022 20000 51009
Loading
Personal Weather Stations






























Interactive Weather Map
Tropical Storm Tracking
New forecast layout! Learn more

10-Day Weather Forecast

Advertisements
Track Severe Weather on mobile